sensor_id;sensor_type;location;lat;lon;timestamp;P1;durP1;ratioP1;P2;durP2;ratioP2
18931;SDS011;9598;50.954;3.112;2023-11-19T00:02:51;19.50;;;5.28;;
18931;SDS011;9598;50.954;3.112;2023-11-19T00:07:53;21.48;;;5.65;;
18931;SDS011;9598;50.954;3.112;2023-11-19T00:12:55;22.23;;;5.07;;
18931;SDS011;9598;50.954;3.112;2023-11-19T00:17:59;21.42;;;5.75;;
18931;SDS011;9598;50.954;3.112;2023-11-19T00:23:04;21.00;;;5.80;;
18931;SDS011;9598;50.954;3.112;2023-11-19T00:28:06;24.00;;;6.50;;
18931;SDS011;9598;50.954;3.112;2023-11-19T00:33:11;22.20;;;6.70;;
18931;SDS011;9598;50.954;3.112;2023-11-19T00:38:13;29.15;;;6.28;;
18931;SDS011;9598;50.954;3.112;2023-11-19T00:43:15;23.27;;;6.15;;
18931;SDS011;9598;50.954;3.112;2023-11-19T00:48:20;27.75;;;7.07;;
18931;SDS011;9598;50.954;3.112;2023-11-19T00:53:22;27.58;;;6.45;;
18931;SDS011;9598;50.954;3.112;2023-11-19T00:58:24;26.63;;;7.28;;
18931;SDS011;9598;50.954;3.112;2023-11-19T01:03:28;26.65;;;7.05;;
18931;SDS011;9598;50.954;3.112;2023-11-19T01:08:31;21.25;;;6.32;;
18931;SDS011;9598;50.954;3.112;2023-11-19T01:13:38;27.30;;;6.97;;
18931;SDS011;9598;50.954;3.112;2023-11-19T01:18:43;23.17;;;6.50;;
18931;SDS011;9598;50.954;3.112;2023-11-19T01:23:45;32.25;;;7.28;;
18931;SDS011;9598;50.954;3.112;2023-11-19T01:28:47;23.45;;;7.13;;
18931;SDS011;9598;50.954;3.112;2023-11-19T01:33:50;22.70;;;6.18;;
18931;SDS011;9598;50.954;3.112;2023-11-19T01:38:53;25.23;;;6.18;;
18931;SDS011;9598;50.954;3.112;2023-11-19T01:43:55;26.73;;;7.15;;
18931;SDS011;9598;50.954;3.112;2023-11-19T01:48:58;29.60;;;6.93;;
18931;SDS011;9598;50.954;3.112;2023-11-19T01:54:01;28.67;;;6.93;;
18931;SDS011;9598;50.954;3.112;2023-11-19T01:59:03;24.02;;;6.90;;
18931;SDS011;9598;50.954;3.112;2023-11-19T02:04:07;26.15;;;7.00;;
18931;SDS011;9598;50.954;3.112;2023-11-19T02:09:10;26.23;;;7.15;;
18931;SDS011;9598;50.954;3.112;2023-11-19T02:14:13;29.38;;;6.53;;
18931;SDS011;9598;50.954;3.112;2023-11-19T02:19:17;26.42;;;7.28;;
18931;SDS011;9598;50.954;3.112;2023-11-19T02:24:21;28.48;;;7.43;;
18931;SDS011;9598;50.954;3.112;2023-11-19T02:29:25;24.48;;;7.35;;
18931;SDS011;9598;50.954;3.112;2023-11-19T02:34:27;28.90;;;7.10;;
18931;SDS011;9598;50.954;3.112;2023-11-19T02:39:29;32.78;;;7.47;;
18931;SDS011;9598;50.954;3.112;2023-11-19T02:44:33;28.27;;;7.63;;
18931;SDS011;9598;50.954;3.112;2023-11-19T02:49:35;27.88;;;7.40;;
18931;SDS011;9598;50.954;3.112;2023-11-19T02:54:37;31.08;;;6.72;;
18931;SDS011;9598;50.954;3.112;2023-11-19T02:59:41;30.75;;;7.13;;
18931;SDS011;9598;50.954;3.112;2023-11-19T03:04:43;31.55;;;7.55;;
18931;SDS011;9598;50.954;3.112;2023-11-19T03:09:46;27.98;;;7.75;;
18931;SDS011;9598;50.954;3.112;2023-11-19T03:14:51;27.10;;;7.07;;
18931;SDS011;9598;50.954;3.112;2023-11-19T03:19:53;29.63;;;7.65;;
18931;SDS011;9598;50.954;3.112;2023-11-19T03:24:55;23.58;;;7.22;;
18931;SDS011;9598;50.954;3.112;2023-11-19T03:29:58;28.65;;;6.78;;
18931;SDS011;9598;50.954;3.112;2023-11-19T03:35:01;27.30;;;6.75;;
18931;SDS011;9598;50.954;3.112;2023-11-19T03:40:05;20.75;;;6.40;;
18931;SDS011;9598;50.954;3.112;2023-11-19T03:45:09;28.08;;;7.05;;
18931;SDS011;9598;50.954;3.112;2023-11-19T03:50:12;27.83;;;6.93;;
18931;SDS011;9598;50.954;3.112;2023-11-19T03:55:16;28.20;;;8.13;;
18931;SDS011;9598;50.954;3.112;2023-11-19T04:00:19;26.05;;;6.93;;
18931;SDS011;9598;50.954;3.112;2023-11-19T04:05:22;35.45;;;8.32;;
18931;SDS011;9598;50.954;3.112;2023-11-19T04:10:24;26.70;;;7.25;;
18931;SDS011;9598;50.954;3.112;2023-11-19T04:15:29;29.92;;;7.32;;
18931;SDS011;9598;50.954;3.112;2023-11-19T04:20:31;26.73;;;7.15;;
18931;SDS011;9598;50.954;3.112;2023-11-19T04:25:33;34.05;;;8.38;;
18931;SDS011;9598;50.954;3.112;2023-11-19T04:30:37;29.17;;;7.47;;
18931;SDS011;9598;50.954;3.112;2023-11-19T04:35:40;32.75;;;7.68;;
18931;SDS011;9598;50.954;3.112;2023-11-19T04:40:42;31.15;;;7.07;;
18931;SDS011;9598;50.954;3.112;2023-11-19T04:45:45;32.42;;;7.88;;
18931;SDS011;9598;50.954;3.112;2023-11-19T04:50:47;27.70;;;8.52;;
18931;SDS011;9598;50.954;3.112;2023-11-19T04:55:51;32.67;;;8.20;;
18931;SDS011;9598;50.954;3.112;2023-11-19T05:00:55;30.15;;;7.63;;
18931;SDS011;9598;50.954;3.112;2023-11-19T05:05:57;27.95;;;7.53;;
18931;SDS011;9598;50.954;3.112;2023-11-19T05:10:59;26.48;;;6.72;;
18931;SDS011;9598;50.954;3.112;2023-11-19T05:16:03;30.40;;;7.78;;
18931;SDS011;9598;50.954;3.112;2023-11-19T05:21:05;29.05;;;7.75;;
18931;SDS011;9598;50.954;3.112;2023-11-19T05:26:08;31.02;;;7.50;;
18931;SDS011;9598;50.954;3.112;2023-11-19T05:31:11;31.67;;;7.32;;
18931;SDS011;9598;50.954;3.112;2023-11-19T05:36:14;29.00;;;7.72;;
18931;SDS011;9598;50.954;3.112;2023-11-19T05:41:16;31.17;;;8.60;;
18931;SDS011;9598;50.954;3.112;2023-11-19T05:46:19;28.45;;;6.80;;
18931;SDS011;9598;50.954;3.112;2023-11-19T05:51:22;28.73;;;7.97;;
18931;SDS011;9598;50.954;3.112;2023-11-19T05:56:25;37.03;;;9.80;;
18931;SDS011;9598;50.954;3.112;2023-11-19T06:01:34;30.38;;;9.40;;
18931;SDS011;9598;50.954;3.112;2023-11-19T06:06:36;30.80;;;9.43;;
18931;SDS011;9598;50.954;3.112;2023-11-19T06:11:39;28.45;;;6.45;;
18931;SDS011;9598;50.954;3.112;2023-11-19T06:16:43;29.42;;;8.70;;
18931;SDS011;9598;50.954;3.112;2023-11-19T06:21:45;32.53;;;9.25;;
18931;SDS011;9598;50.954;3.112;2023-11-19T06:26:47;30.75;;;8.32;;
18931;SDS011;9598;50.954;3.112;2023-11-19T06:31:50;28.17;;;7.78;;
18931;SDS011;9598;50.954;3.112;2023-11-19T06:36:52;30.83;;;7.20;;
18931;SDS011;9598;50.954;3.112;2023-11-19T06:41:54;29.38;;;8.00;;
18931;SDS011;9598;50.954;3.112;2023-11-19T06:46:58;23.10;;;7.15;;
18931;SDS011;9598;50.954;3.112;2023-11-19T06:52:00;30.80;;;7.65;;
18931;SDS011;9598;50.954;3.112;2023-11-19T06:57:03;23.42;;;6.72;;
18931;SDS011;9598;50.954;3.112;2023-11-19T07:02:07;29.48;;;7.43;;
18931;SDS011;9598;50.954;3.112;2023-11-19T07:07:09;34.38;;;7.85;;
18931;SDS011;9598;50.954;3.112;2023-11-19T07:12:11;37.85;;;8.98;;
18931;SDS011;9598;50.954;3.112;2023-11-19T07:17:15;34.08;;;8.30;;
18931;SDS011;9598;50.954;3.112;2023-11-19T07:22:17;30.00;;;7.97;;
18931;SDS011;9598;50.954;3.112;2023-11-19T07:27:21;35.97;;;8.27;;
18931;SDS011;9598;50.954;3.112;2023-11-19T07:32:25;31.63;;;8.32;;
18931;SDS011;9598;50.954;3.112;2023-11-19T07:37:27;30.60;;;7.30;;
18931;SDS011;9598;50.954;3.112;2023-11-19T07:42:30;34.83;;;9.05;;
18931;SDS011;9598;50.954;3.112;2023-11-19T07:47:33;29.38;;;7.82;;
18931;SDS011;9598;50.954;3.112;2023-11-19T07:52:36;28.65;;;8.52;;
18931;SDS011;9598;50.954;3.112;2023-11-19T07:57:38;34.60;;;8.18;;
18931;SDS011;9598;50.954;3.112;2023-11-19T08:02:42;29.35;;;7.60;;
18931;SDS011;9598;50.954;3.112;2023-11-19T08:07:44;30.90;;;8.07;;
18931;SDS011;9598;50.954;3.112;2023-11-19T08:12:46;31.02;;;7.82;;
18931;SDS011;9598;50.954;3.112;2023-11-19T08:17:49;27.60;;;7.43;;
18931;SDS011;9598;50.954;3.112;2023-11-19T08:22:51;22.80;;;6.78;;
18931;SDS011;9598;50.954;3.112;2023-11-19T08:27:54;26.60;;;7.65;;
18931;SDS011;9598;50.954;3.112;2023-11-19T08:32:57;30.35;;;8.10;;
18931;SDS011;9598;50.954;3.112;2023-11-19T08:38:03;30.60;;;8.25;;
18931;SDS011;9598;50.954;3.112;2023-11-19T08:43:05;28.75;;;7.38;;
18931;SDS011;9598;50.954;3.112;2023-11-19T08:48:09;28.27;;;7.95;;
18931;SDS011;9598;50.954;3.112;2023-11-19T08:53:12;27.67;;;8.30;;
18931;SDS011;9598;50.954;3.112;2023-11-19T08:58:14;31.20;;;7.13;;
18931;SDS011;9598;50.954;3.112;2023-11-19T09:03:18;26.92;;;7.85;;
18931;SDS011;9598;50.954;3.112;2023-11-19T09:08:21;28.42;;;7.40;;
18931;SDS011;9598;50.954;3.112;2023-11-19T09:13:23;34.58;;;8.43;;
18931;SDS011;9598;50.954;3.112;2023-11-19T09:18:26;33.10;;;8.55;;
18931;SDS011;9598;50.954;3.112;2023-11-19T09:23:28;27.02;;;6.80;;
18931;SDS011;9598;50.954;3.112;2023-11-19T09:28:36;32.28;;;7.55;;
18931;SDS011;9598;50.954;3.112;2023-11-19T09:33:39;27.55;;;7.07;;
18931;SDS011;9598;50.954;3.112;2023-11-19T09:38:41;28.42;;;7.47;;
18931;SDS011;9598;50.954;3.112;2023-11-19T09:43:45;26.10;;;6.55;;
18931;SDS011;9598;50.954;3.112;2023-11-19T09:48:48;25.10;;;6.68;;
18931;SDS011;9598;50.954;3.112;2023-11-19T09:53:54;31.05;;;8.02;;
18931;SDS011;9598;50.954;3.112;2023-11-19T09:58:57;26.33;;;8.10;;
18931;SDS011;9598;50.954;3.112;2023-11-19T10:04:01;25.98;;;7.18;;
18931;SDS011;9598;50.954;3.112;2023-11-19T10:09:04;27.67;;;7.90;;
18931;SDS011;9598;50.954;3.112;2023-11-19T10:14:06;28.27;;;7.53;;
18931;SDS011;9598;50.954;3.112;2023-11-19T10:19:11;25.65;;;7.93;;
18931;SDS011;9598;50.954;3.112;2023-11-19T10:24:30;26.38;;;7.68;;
18931;SDS011;9598;50.954;3.112;2023-11-19T10:29:35;22.75;;;7.32;;
18931;SDS011;9598;50.954;3.112;2023-11-19T10:34:39;28.10;;;7.20;;
18931;SDS011;9598;50.954;3.112;2023-11-19T10:39:51;29.73;;;6.57;;
18931;SDS011;9598;50.954;3.112;2023-11-19T10:44:54;27.20;;;6.85;;
18931;SDS011;9598;50.954;3.112;2023-11-19T10:49:58;34.67;;;7.75;;
18931;SDS011;9598;50.954;3.112;2023-11-19T10:55:00;29.40;;;7.03;;
18931;SDS011;9598;50.954;3.112;2023-11-19T11:00:06;29.30;;;7.03;;
18931;SDS011;9598;50.954;3.112;2023-11-19T11:05:14;21.13;;;6.57;;
18931;SDS011;9598;50.954;3.112;2023-11-19T11:10:17;25.40;;;7.38;;
18931;SDS011;9598;50.954;3.112;2023-11-19T11:15:22;26.30;;;7.63;;
18931;SDS011;9598;50.954;3.112;2023-11-19T11:20:29;26.23;;;7.15;;
18931;SDS011;9598;50.954;3.112;2023-11-19T11:25:35;31.48;;;6.95;;
18931;SDS011;9598;50.954;3.112;2023-11-19T11:30:46;27.77;;;7.18;;
18931;SDS011;9598;50.954;3.112;2023-11-19T11:36:00;30.70;;;6.93;;
18931;SDS011;9598;50.954;3.112;2023-11-19T11:41:20;26.02;;;7.38;;
18931;SDS011;9598;50.954;3.112;2023-11-19T11:52:04;24.63;;;6.65;;
18931;SDS011;9598;50.954;3.112;2023-11-19T11:57:07;29.13;;;7.00;;
18931;SDS011;9598;50.954;3.112;2023-11-19T12:02:11;24.65;;;6.30;;
18931;SDS011;9598;50.954;3.112;2023-11-19T12:07:15;24.38;;;6.95;;
18931;SDS011;9598;50.954;3.112;2023-11-19T12:12:19;17.88;;;5.43;;
18931;SDS011;9598;50.954;3.112;2023-11-19T12:17:41;28.35;;;7.72;;
18931;SDS011;9598;50.954;3.112;2023-11-19T12:22:51;24.70;;;5.55;;
18931;SDS011;9598;50.954;3.112;2023-11-19T12:27:54;19.33;;;5.53;;
18931;SDS011;9598;50.954;3.112;2023-11-19T12:32:56;24.15;;;6.40;;
18931;SDS011;9598;50.954;3.112;2023-11-19T12:38:00;16.17;;;5.10;;
18931;SDS011;9598;50.954;3.112;2023-11-19T12:43:03;22.00;;;5.75;;
18931;SDS011;9598;50.954;3.112;2023-11-19T12:48:06;24.88;;;7.10;;
18931;SDS011;9598;50.954;3.112;2023-11-19T12:53:11;23.80;;;6.95;;
18931;SDS011;9598;50.954;3.112;2023-11-19T12:58:27;27.05;;;7.32;;
18931;SDS011;9598;50.954;3.112;2023-11-19T13:03:30;20.75;;;6.15;;
18931;SDS011;9598;50.954;3.112;2023-11-19T13:08:38;32.10;;;7.75;;
18931;SDS011;9598;50.954;3.112;2023-11-19T13:13:54;25.52;;;8.20;;
18931;SDS011;9598;50.954;3.112;2023-11-19T13:18:56;31.88;;;6.43;;
18931;SDS011;9598;50.954;3.112;2023-11-19T13:24:01;24.60;;;6.70;;
18931;SDS011;9598;50.954;3.112;2023-11-19T13:29:04;24.30;;;5.93;;
18931;SDS011;9598;50.954;3.112;2023-11-19T13:34:06;26.95;;;6.88;;
18931;SDS011;9598;50.954;3.112;2023-11-19T13:39:10;24.02;;;6.82;;
18931;SDS011;9598;50.954;3.112;2023-11-19T13:44:12;28.58;;;6.18;;
18931;SDS011;9598;50.954;3.112;2023-11-19T13:49:14;19.10;;;6.05;;
18931;SDS011;9598;50.954;3.112;2023-11-19T13:54:18;19.85;;;6.25;;
18931;SDS011;9598;50.954;3.112;2023-11-19T13:59:22;24.77;;;6.10;;
18931;SDS011;9598;50.954;3.112;2023-11-19T14:04:24;25.65;;;5.82;;
18931;SDS011;9598;50.954;3.112;2023-11-19T14:09:27;26.02;;;6.45;;
18931;SDS011;9598;50.954;3.112;2023-11-19T14:14:29;25.73;;;6.50;;
18931;SDS011;9598;50.954;3.112;2023-11-19T14:19:31;22.70;;;5.63;;
18931;SDS011;9598;50.954;3.112;2023-11-19T14:24:35;25.90;;;6.40;;
18931;SDS011;9598;50.954;3.112;2023-11-19T14:29:37;20.42;;;6.18;;
18931;SDS011;9598;50.954;3.112;2023-11-19T14:34:40;23.58;;;5.97;;
18931;SDS011;9598;50.954;3.112;2023-11-19T14:39:44;21.08;;;5.82;;
18931;SDS011;9598;50.954;3.112;2023-11-19T14:44:46;25.50;;;5.55;;
18931;SDS011;9598;50.954;3.112;2023-11-19T14:49:48;24.35;;;5.93;;
18931;SDS011;9598;50.954;3.112;2023-11-19T14:54:51;19.95;;;5.68;;
18931;SDS011;9598;50.954;3.112;2023-11-19T14:59:56;24.02;;;6.22;;
18931;SDS011;9598;50.954;3.112;2023-11-19T15:04:58;23.63;;;6.30;;
18931;SDS011;9598;50.954;3.112;2023-11-19T15:10:02;21.98;;;6.45;;
18931;SDS011;9598;50.954;3.112;2023-11-19T15:15:09;18.58;;;5.20;;
18931;SDS011;9598;50.954;3.112;2023-11-19T15:20:14;27.77;;;4.85;;
18931;SDS011;9598;50.954;3.112;2023-11-19T15:25:20;17.35;;;5.20;;
18931;SDS011;9598;50.954;3.112;2023-11-19T15:30:22;23.13;;;4.93;;
18931;SDS011;9598;50.954;3.112;2023-11-19T15:35:26;17.13;;;4.82;;
18931;SDS011;9598;50.954;3.112;2023-11-19T15:40:29;17.45;;;4.68;;
18931;SDS011;9598;50.954;3.112;2023-11-19T15:45:32;15.88;;;3.92;;
18931;SDS011;9598;50.954;3.112;2023-11-19T15:50:37;18.38;;;5.15;;
18931;SDS011;9598;50.954;3.112;2023-11-19T15:55:41;17.05;;;4.15;;
18931;SDS011;9598;50.954;3.112;2023-11-19T16:00:43;13.93;;;3.92;;
18931;SDS011;9598;50.954;3.112;2023-11-19T16:05:47;16.88;;;4.68;;
18931;SDS011;9598;50.954;3.112;2023-11-19T16:10:51;10.93;;;3.75;;
18931;SDS011;9598;50.954;3.112;2023-11-19T16:15:53;20.75;;;4.72;;
18931;SDS011;9598;50.954;3.112;2023-11-19T16:20:55;17.65;;;4.38;;
18931;SDS011;9598;50.954;3.112;2023-11-19T16:25:58;16.58;;;5.47;;
18931;SDS011;9598;50.954;3.112;2023-11-19T16:31:00;22.50;;;7.05;;
18931;SDS011;9598;50.954;3.112;2023-11-19T16:36:03;14.20;;;4.65;;
18931;SDS011;9598;50.954;3.112;2023-11-19T16:41:07;12.05;;;5.07;;
18931;SDS011;9598;50.954;3.112;2023-11-19T16:46:10;15.73;;;4.63;;
18931;SDS011;9598;50.954;3.112;2023-11-19T16:51:12;20.52;;;4.97;;
18931;SDS011;9598;50.954;3.112;2023-11-19T16:56:17;21.55;;;5.70;;
18931;SDS011;9598;50.954;3.112;2023-11-19T17:01:21;20.13;;;4.80;;
18931;SDS011;9598;50.954;3.112;2023-11-19T17:06:23;17.98;;;4.93;;
18931;SDS011;9598;50.954;3.112;2023-11-19T17:11:26;12.55;;;4.60;;
18931;SDS011;9598;50.954;3.112;2023-11-19T17:16:28;13.52;;;4.53;;
18931;SDS011;9598;50.954;3.112;2023-11-19T17:21:30;14.75;;;4.47;;
18931;SDS011;9598;50.954;3.112;2023-11-19T17:26:34;14.98;;;4.30;;
18931;SDS011;9598;50.954;3.112;2023-11-19T17:31:36;19.35;;;4.97;;
18931;SDS011;9598;50.954;3.112;2023-11-19T17:36:38;15.48;;;4.97;;
18931;SDS011;9598;50.954;3.112;2023-11-19T17:41:42;19.05;;;5.30;;
18931;SDS011;9598;50.954;3.112;2023-11-19T17:46:44;15.68;;;4.57;;
18931;SDS011;9598;50.954;3.112;2023-11-19T17:51:46;22.00;;;5.18;;
18931;SDS011;9598;50.954;3.112;2023-11-19T17:56:50;16.60;;;4.63;;
18931;SDS011;9598;50.954;3.112;2023-11-19T18:01:52;13.45;;;4.03;;
18931;SDS011;9598;50.954;3.112;2023-11-19T18:06:56;11.93;;;3.88;;
18931;SDS011;9598;50.954;3.112;2023-11-19T18:11:59;12.63;;;4.28;;
18931;SDS011;9598;50.954;3.112;2023-11-19T18:17:03;11.60;;;3.90;;
18931;SDS011;9598;50.954;3.112;2023-11-19T18:22:05;15.10;;;4.50;;
18931;SDS011;9598;50.954;3.112;2023-11-19T18:27:09;16.98;;;4.38;;
18931;SDS011;9598;50.954;3.112;2023-11-19T18:32:11;12.57;;;4.00;;
18931;SDS011;9598;50.954;3.112;2023-11-19T18:37:13;14.38;;;4.13;;
18931;SDS011;9598;50.954;3.112;2023-11-19T18:42:16;14.93;;;4.55;;
18931;SDS011;9598;50.954;3.112;2023-11-19T18:47:18;14.00;;;4.70;;
18931;SDS011;9598;50.954;3.112;2023-11-19T18:52:21;15.25;;;4.18;;
18931;SDS011;9598;50.954;3.112;2023-11-19T18:57:24;15.00;;;4.55;;
18931;SDS011;9598;50.954;3.112;2023-11-19T19:02:28;14.82;;;3.75;;
18931;SDS011;9598;50.954;3.112;2023-11-19T19:07:30;13.80;;;4.45;;
18931;SDS011;9598;50.954;3.112;2023-11-19T19:12:33;14.18;;;4.60;;
18931;SDS011;9598;50.954;3.112;2023-11-19T19:17:36;13.75;;;4.07;;
18931;SDS011;9598;50.954;3.112;2023-11-19T19:22:38;9.10;;;4.40;;
18931;SDS011;9598;50.954;3.112;2023-11-19T19:27:43;16.83;;;4.60;;
18931;SDS011;9598;50.954;3.112;2023-11-19T19:32:45;7.47;;;3.17;;
18931;SDS011;9598;50.954;3.112;2023-11-19T19:37:47;11.70;;;3.55;;
18931;SDS011;9598;50.954;3.112;2023-11-19T19:42:51;9.27;;;2.88;;
18931;SDS011;9598;50.954;3.112;2023-11-19T19:47:54;11.52;;;3.15;;
18931;SDS011;9598;50.954;3.112;2023-11-19T19:52:57;12.60;;;3.05;;
18931;SDS011;9598;50.954;3.112;2023-11-19T19:58:00;12.07;;;4.50;;
18931;SDS011;9598;50.954;3.112;2023-11-19T20:03:04;12.07;;;3.60;;
18931;SDS011;9598;50.954;3.112;2023-11-19T20:08:06;12.63;;;4.13;;
18931;SDS011;9598;50.954;3.112;2023-11-19T20:13:10;14.18;;;3.90;;
18931;SDS011;9598;50.954;3.112;2023-11-19T20:18:13;13.88;;;4.15;;
18931;SDS011;9598;50.954;3.112;2023-11-19T20:23:16;10.73;;;4.05;;
18931;SDS011;9598;50.954;3.112;2023-11-19T20:28:21;17.13;;;4.00;;
18931;SDS011;9598;50.954;3.112;2023-11-19T20:33:23;19.45;;;4.20;;
18931;SDS011;9598;50.954;3.112;2023-11-19T20:38:25;17.85;;;4.40;;
18931;SDS011;9598;50.954;3.112;2023-11-19T20:43:29;11.23;;;4.03;;
18931;SDS011;9598;50.954;3.112;2023-11-19T20:48:31;14.40;;;4.32;;
18931;SDS011;9598;50.954;3.112;2023-11-19T20:53:34;12.50;;;4.13;;
18931;SDS011;9598;50.954;3.112;2023-11-19T20:58:38;16.48;;;4.07;;
18931;SDS011;9598;50.954;3.112;2023-11-19T21:03:40;15.75;;;4.30;;
18931;SDS011;9598;50.954;3.112;2023-11-19T21:08:42;16.75;;;3.92;;
18931;SDS011;9598;50.954;3.112;2023-11-19T21:13:46;18.33;;;4.47;;
18931;SDS011;9598;50.954;3.112;2023-11-19T21:18:48;17.08;;;4.72;;
18931;SDS011;9598;50.954;3.112;2023-11-19T21:23:51;16.80;;;4.50;;
18931;SDS011;9598;50.954;3.112;2023-11-19T21:28:54;12.55;;;3.10;;
18931;SDS011;9598;50.954;3.112;2023-11-19T21:33:56;11.27;;;3.35;;
18931;SDS011;9598;50.954;3.112;2023-11-19T21:38:59;16.27;;;4.88;;
18931;SDS011;9598;50.954;3.112;2023-11-19T21:44:05;16.52;;;4.57;;
18931;SDS011;9598;50.954;3.112;2023-11-19T21:49:08;10.48;;;2.67;;
18931;SDS011;9598;50.954;3.112;2023-11-19T21:54:10;12.70;;;3.55;;
18931;SDS011;9598;50.954;3.112;2023-11-19T21:59:14;17.67;;;3.10;;
18931;SDS011;9598;50.954;3.112;2023-11-19T22:04:16;13.20;;;4.35;;
18931;SDS011;9598;50.954;3.112;2023-11-19T22:09:18;17.73;;;4.55;;
18931;SDS011;9598;50.954;3.112;2023-11-19T22:14:22;14.73;;;4.40;;
18931;SDS011;9598;50.954;3.112;2023-11-19T22:19:24;21.50;;;4.75;;
18931;SDS011;9598;50.954;3.112;2023-11-19T22:24:26;17.85;;;4.50;;
18931;SDS011;9598;50.954;3.112;2023-11-19T22:29:29;12.90;;;4.18;;
18931;SDS011;9598;50.954;3.112;2023-11-19T22:34:33;14.35;;;4.70;;
18931;SDS011;9598;50.954;3.112;2023-11-19T22:39:35;15.88;;;4.10;;
18931;SDS011;9598;50.954;3.112;2023-11-19T22:44:38;20.52;;;4.82;;
18931;SDS011;9598;50.954;3.112;2023-11-19T22:49:40;18.17;;;4.65;;
18931;SDS011;9598;50.954;3.112;2023-11-19T22:54:42;16.08;;;4.22;;
18931;SDS011;9598;50.954;3.112;2023-11-19T22:59:46;22.02;;;4.40;;
18931;SDS011;9598;50.954;3.112;2023-11-19T23:04:48;19.27;;;4.75;;
18931;SDS011;9598;50.954;3.112;2023-11-19T23:09:50;20.05;;;4.47;;
18931;SDS011;9598;50.954;3.112;2023-11-19T23:14:53;14.90;;;4.85;;
18931;SDS011;9598;50.954;3.112;2023-11-19T23:19:59;19.00;;;5.25;;
18931;SDS011;9598;50.954;3.112;2023-11-19T23:25:06;19.00;;;4.82;;
18931;SDS011;9598;50.954;3.112;2023-11-19T23:30:10;14.32;;;4.93;;
18931;SDS011;9598;50.954;3.112;2023-11-19T23:35:15;14.75;;;3.80;;
18931;SDS011;9598;50.954;3.112;2023-11-19T23:40:18;17.70;;;3.80;;
18931;SDS011;9598;50.954;3.112;2023-11-19T23:45:22;13.43;;;4.63;;
18931;SDS011;9598;50.954;3.112;2023-11-19T23:50:24;12.98;;;4.47;;
18931;SDS011;9598;50.954;3.112;2023-11-19T23:55:26;12.18;;;4.10;;
